sensor_id;sensor_type;location;lat;lon;timestamp;temperature;humidity
7388;DHT22;3735;50.136;11.062;2023-04-06T00:02:08;-3.40;99.90
7388;DHT22;3735;50.136;11.062;2023-04-06T00:04:34;-3.40;99.90
7388;DHT22;3735;50.136;11.062;2023-04-06T00:07:00;-3.50;99.90
7388;DHT22;3735;50.136;11.062;2023-04-06T00:09:26;-3.50;99.90
7388;DHT22;3735;50.136;11.062;2023-04-06T00:11:52;-3.60;99.90
7388;DHT22;3735;50.136;11.062;2023-04-06T00:14:18;-3.60;99.90
7388;DHT22;3735;50.136;11.062;2023-04-06T00:16:43;-3.60;99.90
7388;DHT22;3735;50.136;11.062;2023-04-06T00:19:09;-3.60;99.90
7388;DHT22;3735;50.136;11.062;2023-04-06T00:21:35;-3.70;99.90
7388;DHT22;3735;50.136;11.062;2023-04-06T00:24:01;-3.70;99.90
7388;DHT22;3735;50.136;11.062;2023-04-06T00:26:29;-3.70;99.90
7388;DHT22;3735;50.136;11.062;2023-04-06T00:28:55;-3.70;99.90
7388;DHT22;3735;50.136;11.062;2023-04-06T00:31:21;-3.80;99.90
7388;DHT22;3735;50.136;11.062;2023-04-06T00:33:48;-3.70;99.90
7388;DHT22;3735;50.136;11.062;2023-04-06T00:36:14;-3.70;99.90
7388;DHT22;3735;50.136;11.062;2023-04-06T00:38:40;-3.80;99.90
7388;DHT22;3735;50.136;11.062;2023-04-06T00:41:06;-3.80;99.90
7388;DHT22;3735;50.136;11.062;2023-04-06T00:43:32;-3.80;99.90
7388;DHT22;3735;50.136;11.062;2023-04-06T00:45:58;-3.80;99.90
7388;DHT22;3735;50.136;11.062;2023-04-06T00:48:23;-3.80;99.90
7388;DHT22;3735;50.136;11.062;2023-04-06T00:50:49;-3.80;99.90
7388;DHT22;3735;50.136;11.062;2023-04-06T00:53:15;-3.80;99.90
7388;DHT22;3735;50.136;11.062;2023-04-06T00:55:41;-3.90;99.90
7388;DHT22;3735;50.136;11.062;2023-04-06T00:58:07;-3.90;99.90
7388;DHT22;3735;50.136;11.062;2023-04-06T01:00:33;-3.90;99.90
7388;DHT22;3735;50.136;11.062;2023-04-06T01:02:59;-4.00;99.90
7388;DHT22;3735;50.136;11.062;2023-04-06T01:05:25;-4.10;99.90
7388;DHT22;3735;50.136;11.062;2023-04-06T01:07:50;-4.00;99.90
7388;DHT22;3735;50.136;11.062;2023-04-06T01:10:26;-4.00;99.90
7388;DHT22;3735;50.136;11.062;2023-04-06T01:12:53;-4.00;99.90
7388;DHT22;3735;50.136;11.062;2023-04-06T01:15:20;-4.10;99.90
7388;DHT22;3735;50.136;11.062;2023-04-06T01:17:47;-4.10;99.90
7388;DHT22;3735;50.136;11.062;2023-04-06T01:20:13;-4.20;99.90
7388;DHT22;3735;50.136;11.062;2023-04-06T01:22:39;-4.20;99.90
7388;DHT22;3735;50.136;11.062;2023-04-06T01:25:06;-4.20;99.90
7388;DHT22;3735;50.136;11.062;2023-04-06T01:27:32;-4.30;99.90
7388;DHT22;3735;50.136;11.062;2023-04-06T01:29:58;-4.20;99.90
7388;DHT22;3735;50.136;11.062;2023-04-06T01:32:24;-4.30;99.90
7388;DHT22;3735;50.136;11.062;2023-04-06T01:34:50;-4.30;99.90
7388;DHT22;3735;50.136;11.062;2023-04-06T01:37:16;-4.30;99.90
7388;DHT22;3735;50.136;11.062;2023-04-06T01:39:43;-4.30;99.90
7388;DHT22;3735;50.136;11.062;2023-04-06T01:42:09;-4.30;99.90
7388;DHT22;3735;50.136;11.062;2023-04-06T01:44:35;-4.40;99.90
7388;DHT22;3735;50.136;11.062;2023-04-06T01:47:02;-4.40;99.90
7388;DHT22;3735;50.136;11.062;2023-04-06T01:49:28;-4.40;99.90
7388;DHT22;3735;50.136;11.062;2023-04-06T01:51:54;-4.40;99.90
7388;DHT22;3735;50.136;11.062;2023-04-06T01:54:20;-4.50;99.90
7388;DHT22;3735;50.136;11.062;2023-04-06T01:56:46;-4.50;99.90
7388;DHT22;3735;50.136;11.062;2023-04-06T01:59:12;-4.40;99.90
7388;DHT22;3735;50.136;11.062;2023-04-06T02:01:38;-4.40;99.90
7388;DHT22;3735;50.136;11.062;2023-04-06T02:04:04;-4.50;99.90
7388;DHT22;3735;50.136;11.062;2023-04-06T02:06:29;-4.40;99.90
7388;DHT22;3735;50.136;11.062;2023-04-06T02:08:56;-4.50;99.90
7388;DHT22;3735;50.136;11.062;2023-04-06T02:11:21;-4.50;99.90
7388;DHT22;3735;50.136;11.062;2023-04-06T02:13:47;-4.50;99.90
7388;DHT22;3735;50.136;11.062;2023-04-06T02:16:13;-4.50;99.90
7388;DHT22;3735;50.136;11.062;2023-04-06T02:18:40;-4.50;99.90
7388;DHT22;3735;50.136;11.062;2023-04-06T02:21:05;-4.50;99.90
7388;DHT22;3735;50.136;11.062;2023-04-06T02:23:31;-4.50;99.90
7388;DHT22;3735;50.136;11.062;2023-04-06T02:25:57;-4.50;99.90
7388;DHT22;3735;50.136;11.062;2023-04-06T02:28:23;-4.60;99.90
7388;DHT22;3735;50.136;11.062;2023-04-06T02:30:49;-4.60;99.90
7388;DHT22;3735;50.136;11.062;2023-04-06T02:33:14;-4.60;99.90
7388;DHT22;3735;50.136;11.062;2023-04-06T02:35:40;-4.60;99.90
7388;DHT22;3735;50.136;11.062;2023-04-06T02:38:06;-4.60;99.90
7388;DHT22;3735;50.136;11.062;2023-04-06T02:40:32;-4.60;99.90
7388;DHT22;3735;50.136;11.062;2023-04-06T02:42:58;-4.50;99.90
7388;DHT22;3735;50.136;11.062;2023-04-06T02:45:23;-4.40;99.90
7388;DHT22;3735;50.136;11.062;2023-04-06T02:47:49;-4.40;99.90
7388;DHT22;3735;50.136;11.062;2023-04-06T02:50:15;-4.30;99.90
7388;DHT22;3735;50.136;11.062;2023-04-06T02:52:41;-4.20;99.90
7388;DHT22;3735;50.136;11.062;2023-04-06T02:55:08;-4.20;99.90
7388;DHT22;3735;50.136;11.062;2023-04-06T02:57:34;-4.10;99.90
7388;DHT22;3735;50.136;11.062;2023-04-06T03:00:00;-4.10;99.90
7388;DHT22;3735;50.136;11.062;2023-04-06T03:02:25;-4.10;99.90
7388;DHT22;3735;50.136;11.062;2023-04-06T03:04:51;-4.10;99.90
7388;DHT22;3735;50.136;11.062;2023-04-06T03:07:17;-4.10;99.90
7388;DHT22;3735;50.136;11.062;2023-04-06T03:09:43;-4.00;99.90
7388;DHT22;3735;50.136;11.062;2023-04-06T03:12:08;-4.00;99.90
7388;DHT22;3735;50.136;11.062;2023-04-06T03:14:34;-4.00;99.90
7388;DHT22;3735;50.136;11.062;2023-04-06T03:17:00;-4.00;99.90
7388;DHT22;3735;50.136;11.062;2023-04-06T03:19:26;-4.10;99.90
7388;DHT22;3735;50.136;11.062;2023-04-06T03:21:52;-4.10;99.90
7388;DHT22;3735;50.136;11.062;2023-04-06T03:24:18;-4.20;99.90
7388;DHT22;3735;50.136;11.062;2023-04-06T03:26:43;-4.20;99.90
7388;DHT22;3735;50.136;11.062;2023-04-06T03:29:09;-4.30;99.90
7388;DHT22;3735;50.136;11.062;2023-04-06T03:31:35;-4.40;99.90
7388;DHT22;3735;50.136;11.062;2023-04-06T03:34:01;-4.40;99.90
7388;DHT22;3735;50.136;11.062;2023-04-06T03:36:27;-4.40;99.90
7388;DHT22;3735;50.136;11.062;2023-04-06T03:38:52;-4.40;99.90
7388;DHT22;3735;50.136;11.062;2023-04-06T03:41:21;-4.20;99.90
7388;DHT22;3735;50.136;11.062;2023-04-06T03:43:47;-4.10;99.90
7388;DHT22;3735;50.136;11.062;2023-04-06T03:46:13;-3.90;99.90
7388;DHT22;3735;50.136;11.062;2023-04-06T03:48:39;-3.90;99.90
7388;DHT22;3735;50.136;11.062;2023-04-06T03:51:05;-3.80;99.90
7388;DHT22;3735;50.136;11.062;2023-04-06T03:53:31;-3.70;99.90
7388;DHT22;3735;50.136;11.062;2023-04-06T03:55:56;-3.80;99.90
7388;DHT22;3735;50.136;11.062;2023-04-06T03:58:22;-3.90;99.90
7388;DHT22;3735;50.136;11.062;2023-04-06T04:00:48;-4.00;99.90
7388;DHT22;3735;50.136;11.062;2023-04-06T04:03:14;-3.90;99.90
7388;DHT22;3735;50.136;11.062;2023-04-06T04:05:39;-3.90;99.90
7388;DHT22;3735;50.136;11.062;2023-04-06T04:08:05;-4.00;99.90
7388;DHT22;3735;50.136;11.062;2023-04-06T04:10:31;-4.10;99.90
7388;DHT22;3735;50.136;11.062;2023-04-06T04:12:57;-4.30;99.90
7388;DHT22;3735;50.136;11.062;2023-04-06T04:15:23;-4.50;99.90
7388;DHT22;3735;50.136;11.062;2023-04-06T04:17:48;-4.50;99.90
7388;DHT22;3735;50.136;11.062;2023-04-06T04:20:16;-4.50;99.90
7388;DHT22;3735;50.136;11.062;2023-04-06T04:22:41;-4.60;99.90
7388;DHT22;3735;50.136;11.062;2023-04-06T04:25:08;-4.50;99.90
7388;DHT22;3735;50.136;11.062;2023-04-06T04:27:35;-4.60;99.90
7388;DHT22;3735;50.136;11.062;2023-04-06T04:30:01;-4.70;99.90
7388;DHT22;3735;50.136;11.062;2023-04-06T04:32:28;-4.80;99.90
7388;DHT22;3735;50.136;11.062;2023-04-06T04:34:54;-4.80;99.90
7388;DHT22;3735;50.136;11.062;2023-04-06T04:37:20;-4.80;99.90
7388;DHT22;3735;50.136;11.062;2023-04-06T04:39:46;-4.70;99.90
7388;DHT22;3735;50.136;11.062;2023-04-06T04:42:11;-4.50;99.90
7388;DHT22;3735;50.136;11.062;2023-04-06T04:44:37;-4.40;99.90
7388;DHT22;3735;50.136;11.062;2023-04-06T04:47:04;-4.40;99.90
7388;DHT22;3735;50.136;11.062;2023-04-06T04:49:30;-4.40;99.90
7388;DHT22;3735;50.136;11.062;2023-04-06T04:51:56;-4.40;99.90
7388;DHT22;3735;50.136;11.062;2023-04-06T04:54:22;-4.40;99.90
7388;DHT22;3735;50.136;11.062;2023-04-06T04:56:48;-4.40;99.90
7388;DHT22;3735;50.136;11.062;2023-04-06T04:59:13;-4.30;99.90
7388;DHT22;3735;50.136;11.062;2023-04-06T05:01:39;-4.30;99.90
7388;DHT22;3735;50.136;11.062;2023-04-06T05:04:05;-4.40;99.90
7388;DHT22;3735;50.136;11.062;2023-04-06T05:06:31;-4.40;99.90
7388;DHT22;3735;50.136;11.062;2023-04-06T05:08:57;-4.40;99.90
7388;DHT22;3735;50.136;11.062;2023-04-06T05:11:23;-4.40;99.90
7388;DHT22;3735;50.136;11.062;2023-04-06T05:13:48;-4.40;99.90
7388;DHT22;3735;50.136;11.062;2023-04-06T05:16:14;-4.30;99.90
7388;DHT22;3735;50.136;11.062;2023-04-06T05:18:40;-4.30;99.90
7388;DHT22;3735;50.136;11.062;2023-04-06T05:21:06;-4.20;99.90
7388;DHT22;3735;50.136;11.062;2023-04-06T05:23:32;-4.10;99.90
7388;DHT22;3735;50.136;11.062;2023-04-06T05:25:58;-4.00;99.90
7388;DHT22;3735;50.136;11.062;2023-04-06T05:28:24;-3.80;99.90
7388;DHT22;3735;50.136;11.062;2023-04-06T05:30:50;-3.00;99.90
7388;DHT22;3735;50.136;11.062;2023-04-06T05:33:16;-1.80;99.90
7388;DHT22;3735;50.136;11.062;2023-04-06T05:35:42;-0.50;99.90
7388;DHT22;3735;50.136;11.062;2023-04-06T05:38:08;0.50;99.90
7388;DHT22;3735;50.136;11.062;2023-04-06T05:40:37;1.40;99.90
7388;DHT22;3735;50.136;11.062;2023-04-06T05:43:06;2.10;99.90
7388;DHT22;3735;50.136;11.062;2023-04-06T05:45:33;2.30;99.90
7388;DHT22;3735;50.136;11.062;2023-04-06T05:48:00;2.20;99.90
7388;DHT22;3735;50.136;11.062;2023-04-06T05:50:27;1.80;99.90
7388;DHT22;3735;50.136;11.062;2023-04-06T05:52:53;1.40;99.90
7388;DHT22;3735;50.136;11.062;2023-04-06T05:55:20;1.00;99.90
7388;DHT22;3735;50.136;11.062;2023-04-06T05:57:45;0.80;99.90
7388;DHT22;3735;50.136;11.062;2023-04-06T06:00:12;0.50;99.90
7388;DHT22;3735;50.136;11.062;2023-04-06T06:02:38;0.30;99.90
7388;DHT22;3735;50.136;11.062;2023-04-06T06:05:05;0.30;99.90
7388;DHT22;3735;50.136;11.062;2023-04-06T06:07:31;0.30;99.90
7388;DHT22;3735;50.136;11.062;2023-04-06T06:09:57;0.30;99.90
7388;DHT22;3735;50.136;11.062;2023-04-06T06:12:23;0.40;99.90
7388;DHT22;3735;50.136;11.062;2023-04-06T06:14:49;0.90;99.90
7388;DHT22;3735;50.136;11.062;2023-04-06T06:17:15;2.10;99.90
7388;DHT22;3735;50.136;11.062;2023-04-06T06:19:41;3.60;99.90
7388;DHT22;3735;50.136;11.062;2023-04-06T06:22:07;4.80;99.90
7388;DHT22;3735;50.136;11.062;2023-04-06T06:24:33;6.10;99.90
7388;DHT22;3735;50.136;11.062;2023-04-06T06:26:58;7.20;99.90
7388;DHT22;3735;50.136;11.062;2023-04-06T06:29:24;7.90;99.90
7388;DHT22;3735;50.136;11.062;2023-04-06T06:31:50;8.70;99.90
7388;DHT22;3735;50.136;11.062;2023-04-06T06:34:16;9.50;99.90
7388;DHT22;3735;50.136;11.062;2023-04-06T06:36:42;10.30;99.90
7388;DHT22;3735;50.136;11.062;2023-04-06T06:39:07;10.90;99.90
7388;DHT22;3735;50.136;11.062;2023-04-06T06:41:33;11.00;99.90
7388;DHT22;3735;50.136;11.062;2023-04-06T06:43:59;11.70;99.90
7388;DHT22;3735;50.136;11.062;2023-04-06T06:46:25;12.60;99.90
7388;DHT22;3735;50.136;11.062;2023-04-06T06:48:51;13.00;99.90
7388;DHT22;3735;50.136;11.062;2023-04-06T06:51:17;13.40;99.90
7388;DHT22;3735;50.136;11.062;2023-04-06T06:53:42;13.50;99.90
7388;DHT22;3735;50.136;11.062;2023-04-06T06:56:08;13.90;99.90
7388;DHT22;3735;50.136;11.062;2023-04-06T06:58:34;14.10;99.90
7388;DHT22;3735;50.136;11.062;2023-04-06T07:01:00;14.20;99.90
7388;DHT22;3735;50.136;11.062;2023-04-06T07:03:26;14.60;99.90
7388;DHT22;3735;50.136;11.062;2023-04-06T07:05:52;15.10;99.90
7388;DHT22;3735;50.136;11.062;2023-04-06T07:08:22;15.40;99.90
7388;DHT22;3735;50.136;11.062;2023-04-06T07:10:50;15.70;99.90
7388;DHT22;3735;50.136;11.062;2023-04-06T07:13:23;15.80;99.90
7388;DHT22;3735;50.136;11.062;2023-04-06T07:15:50;16.00;99.90
7388;DHT22;3735;50.136;11.062;2023-04-06T07:18:17;16.30;99.90
7388;DHT22;3735;50.136;11.062;2023-04-06T07:20:43;16.30;99.90
7388;DHT22;3735;50.136;11.062;2023-04-06T07:23:09;17.00;99.90
7388;DHT22;3735;50.136;11.062;2023-04-06T07:25:35;17.40;99.90
7388;DHT22;3735;50.136;11.062;2023-04-06T07:28:02;17.80;99.90
7388;DHT22;3735;50.136;11.062;2023-04-06T07:30:28;17.50;99.90
7388;DHT22;3735;50.136;11.062;2023-04-06T07:32:54;17.50;99.90
7388;DHT22;3735;50.136;11.062;2023-04-06T07:35:22;17.80;99.90
7388;DHT22;3735;50.136;11.062;2023-04-06T07:37:52;18.20;99.90
7388;DHT22;3735;50.136;11.062;2023-04-06T07:40:19;18.70;99.90
7388;DHT22;3735;50.136;11.062;2023-04-06T07:42:45;18.90;99.90
7388;DHT22;3735;50.136;11.062;2023-04-06T07:45:11;19.10;99.90
7388;DHT22;3735;50.136;11.062;2023-04-06T07:47:37;19.30;99.90
7388;DHT22;3735;50.136;11.062;2023-04-06T07:50:03;19.50;99.90
7388;DHT22;3735;50.136;11.062;2023-04-06T07:52:30;19.90;99.90
7388;DHT22;3735;50.136;11.062;2023-04-06T07:54:58;20.30;99.90
7388;DHT22;3735;50.136;11.062;2023-04-06T07:57:24;20.60;99.90
7388;DHT22;3735;50.136;11.062;2023-04-06T07:59:49;20.70;99.90
7388;DHT22;3735;50.136;11.062;2023-04-06T08:02:15;20.00;99.90
7388;DHT22;3735;50.136;11.062;2023-04-06T08:04:42;19.70;99.90
7388;DHT22;3735;50.136;11.062;2023-04-06T08:07:09;19.60;99.90
7388;DHT22;3735;50.136;11.062;2023-04-06T08:09:35;20.10;99.90
7388;DHT22;3735;50.136;11.062;2023-04-06T08:12:01;20.40;99.90
7388;DHT22;3735;50.136;11.062;2023-04-06T08:14:27;20.70;99.90
7388;DHT22;3735;50.136;11.062;2023-04-06T08:16:53;20.60;99.90
7388;DHT22;3735;50.136;11.062;2023-04-06T08:19:19;20.60;99.90
7388;DHT22;3735;50.136;11.062;2023-04-06T08:21:45;20.90;99.90
7388;DHT22;3735;50.136;11.062;2023-04-06T08:24:12;21.40;99.90
7388;DHT22;3735;50.136;11.062;2023-04-06T08:26:38;21.40;99.90
7388;DHT22;3735;50.136;11.062;2023-04-06T08:29:04;21.40;99.90
7388;DHT22;3735;50.136;11.062;2023-04-06T08:31:35;21.50;99.90
7388;DHT22;3735;50.136;11.062;2023-04-06T08:34:03;21.90;99.90
7388;DHT22;3735;50.136;11.062;2023-04-06T08:36:30;21.90;99.90
7388;DHT22;3735;50.136;11.062;2023-04-06T08:38:57;22.00;99.90
7388;DHT22;3735;50.136;11.062;2023-04-06T08:41:23;22.50;99.90
7388;DHT22;3735;50.136;11.062;2023-04-06T08:43:57;22.60;99.90
7388;DHT22;3735;50.136;11.062;2023-04-06T08:46:26;22.80;99.90
7388;DHT22;3735;50.136;11.062;2023-04-06T08:48:58;22.80;99.90
7388;DHT22;3735;50.136;11.062;2023-04-06T08:51:25;23.20;99.90
7388;DHT22;3735;50.136;11.062;2023-04-06T08:53:58;23.40;99.90
7388;DHT22;3735;50.136;11.062;2023-04-06T08:56:27;23.50;99.90
7388;DHT22;3735;50.136;11.062;2023-04-06T08:58:55;23.50;99.90
7388;DHT22;3735;50.136;11.062;2023-04-06T09:01:23;23.60;99.90
7388;DHT22;3735;50.136;11.062;2023-04-06T09:03:56;23.90;99.90
7388;DHT22;3735;50.136;11.062;2023-04-06T09:06:24;24.30;99.90
7388;DHT22;3735;50.136;11.062;2023-04-06T09:08:54;24.40;99.90
7388;DHT22;3735;50.136;11.062;2023-04-06T09:11:20;24.20;99.90
7388;DHT22;3735;50.136;11.062;2023-04-06T09:13:54;24.10;99.90
7388;DHT22;3735;50.136;11.062;2023-04-06T09:16:21;24.50;99.90
7388;DHT22;3735;50.136;11.062;2023-04-06T09:18:48;24.50;99.90
7388;DHT22;3735;50.136;11.062;2023-04-06T09:21:17;24.50;99.90
7388;DHT22;3735;50.136;11.062;2023-04-06T09:23:44;25.00;99.90
7388;DHT22;3735;50.136;11.062;2023-04-06T09:28:57;24.10;99.90
7388;DHT22;3735;50.136;11.062;2023-04-06T09:31:27;25.00;99.90
7388;DHT22;3735;50.136;11.062;2023-04-06T09:33:55;25.40;99.90
7388;DHT22;3735;50.136;11.062;2023-04-06T09:36:33;25.20;99.90
7388;DHT22;3735;50.136;11.062;2023-04-06T09:39:04;25.30;99.90
7388;DHT22;3735;50.136;11.062;2023-04-06T09:41:32;25.70;99.90
7388;DHT22;3735;50.136;11.062;2023-04-06T09:44:06;26.10;99.90
7388;DHT22;3735;50.136;11.062;2023-04-06T09:46:37;26.00;99.90
7388;DHT22;3735;50.136;11.062;2023-04-06T09:49:05;25.90;99.90
7388;DHT22;3735;50.136;11.062;2023-04-06T09:51:46;25.50;99.90
7388;DHT22;3735;50.136;11.062;2023-04-06T09:54:20;25.00;99.90
7388;DHT22;3735;50.136;11.062;2023-04-06T09:59:50;24.40;99.90
7388;DHT22;3735;50.136;11.062;2023-04-06T10:02:56;24.60;99.90
7388;DHT22;3735;50.136;11.062;2023-04-06T10:05:46;25.20;99.90
7388;DHT22;3735;50.136;11.062;2023-04-06T10:08:16;25.20;99.90
7388;DHT22;3735;50.136;11.062;2023-04-06T10:10:43;24.80;99.90
7388;DHT22;3735;50.136;11.062;2023-04-06T10:13:11;24.60;99.90
7388;DHT22;3735;50.136;11.062;2023-04-06T10:15:38;25.00;99.90
7388;DHT22;3735;50.136;11.062;2023-04-06T10:18:06;25.40;99.90
7388;DHT22;3735;50.136;11.062;2023-04-06T10:20:43;25.30;99.90
7388;DHT22;3735;50.136;11.062;2023-04-06T10:25:53;25.60;99.90
7388;DHT22;3735;50.136;11.062;2023-04-06T10:28:20;25.20;99.90
7388;DHT22;3735;50.136;11.062;2023-04-06T10:30:46;25.40;99.90
7388;DHT22;3735;50.136;11.062;2023-04-06T10:33:17;25.80;99.90
7388;DHT22;3735;50.136;11.062;2023-04-06T10:35:46;25.80;99.90
7388;DHT22;3735;50.136;11.062;2023-04-06T10:38:12;25.30;99.90
7388;DHT22;3735;50.136;11.062;2023-04-06T10:40:45;24.90;99.90
7388;DHT22;3735;50.136;11.062;2023-04-06T10:43:20;24.80;99.90
7388;DHT22;3735;50.136;11.062;2023-04-06T10:45:59;25.20;99.90
7388;DHT22;3735;50.136;11.062;2023-04-06T10:48:40;25.10;99.90
7388;DHT22;3735;50.136;11.062;2023-04-06T10:51:12;24.50;99.90
7388;DHT22;3735;50.136;11.062;2023-04-06T10:53:44;24.00;99.90
7388;DHT22;3735;50.136;11.062;2023-04-06T10:56:16;23.70;99.90
7388;DHT22;3735;50.136;11.062;2023-04-06T10:58:49;24.00;99.90
7388;DHT22;3735;50.136;11.062;2023-04-06T11:01:17;24.20;99.90
7388;DHT22;3735;50.136;11.062;2023-04-06T11:03:44;24.70;99.90
7388;DHT22;3735;50.136;11.062;2023-04-06T11:06:25;25.60;99.90
7388;DHT22;3735;50.136;11.062;2023-04-06T11:08:55;26.40;99.90
7388;DHT22;3735;50.136;11.062;2023-04-06T11:11:23;26.50;99.90
7388;DHT22;3735;50.136;11.062;2023-04-06T11:13:56;26.80;99.90
7388;DHT22;3735;50.136;11.062;2023-04-06T11:18:50;26.90;99.90
7388;DHT22;3735;50.136;11.062;2023-04-06T11:21:17;26.20;99.90
7388;DHT22;3735;50.136;11.062;2023-04-06T11:23:43;26.40;99.90
7388;DHT22;3735;50.136;11.062;2023-04-06T11:26:13;27.00;99.90
7388;DHT22;3735;50.136;11.062;2023-04-06T11:28:41;26.40;99.90
7388;DHT22;3735;50.136;11.062;2023-04-06T11:31:11;25.90;99.90
7388;DHT22;3735;50.136;11.062;2023-04-06T11:33:40;25.70;99.90
7388;DHT22;3735;50.136;11.062;2023-04-06T11:36:06;25.70;99.90
7388;DHT22;3735;50.136;11.062;2023-04-06T11:38:33;25.80;99.90
7388;DHT22;3735;50.136;11.062;2023-04-06T11:40:58;26.00;99.90
7388;DHT22;3735;50.136;11.062;2023-04-06T11:43:30;26.20;99.90
7388;DHT22;3735;50.136;11.062;2023-04-06T11:46:03;25.60;99.90
7388;DHT22;3735;50.136;11.062;2023-04-06T11:48:44;25.10;99.90
7388;DHT22;3735;50.136;11.062;2023-04-06T11:51:12;25.30;99.90
7388;DHT22;3735;50.136;11.062;2023-04-06T11:53:46;25.50;99.90
7388;DHT22;3735;50.136;11.062;2023-04-06T11:56:23;25.90;99.90
7388;DHT22;3735;50.136;11.062;2023-04-06T11:58:58;25.70;99.90
7388;DHT22;3735;50.136;11.062;2023-04-06T12:01:26;26.00;99.90
7388;DHT22;3735;50.136;11.062;2023-04-06T12:03:52;24.90;99.90
7388;DHT22;3735;50.136;11.062;2023-04-06T12:06:18;24.60;99.90
7388;DHT22;3735;50.136;11.062;2023-04-06T12:08:45;25.00;99.90
7388;DHT22;3735;50.136;11.062;2023-04-06T12:11:11;25.60;99.90
7388;DHT22;3735;50.136;11.062;2023-04-06T12:13:37;25.60;99.90
7388;DHT22;3735;50.136;11.062;2023-04-06T12:16:03;25.80;99.90
7388;DHT22;3735;50.136;11.062;2023-04-06T12:18:30;26.20;99.90
7388;DHT22;3735;50.136;11.062;2023-04-06T12:20:56;26.20;99.90
7388;DHT22;3735;50.136;11.062;2023-04-06T12:23:21;26.10;99.90
7388;DHT22;3735;50.136;11.062;2023-04-06T12:25:47;25.20;99.90
7388;DHT22;3735;50.136;11.062;2023-04-06T12:28:13;24.90;99.90
7388;DHT22;3735;50.136;11.062;2023-04-06T12:30:39;24.80;99.90
7388;DHT22;3735;50.136;11.062;2023-04-06T12:33:06;25.00;99.90
7388;DHT22;3735;50.136;11.062;2023-04-06T12:35:37;25.70;99.90
7388;DHT22;3735;50.136;11.062;2023-04-06T12:38:04;26.50;99.90
7388;DHT22;3735;50.136;11.062;2023-04-06T12:40:29;27.10;99.90
7388;DHT22;3735;50.136;11.062;2023-04-06T12:42:55;26.30;99.90
7388;DHT22;3735;50.136;11.062;2023-04-06T12:45:21;26.20;99.90
7388;DHT22;3735;50.136;11.062;2023-04-06T12:47:47;26.40;99.90
7388;DHT22;3735;50.136;11.062;2023-04-06T12:50:13;25.80;99.90
7388;DHT22;3735;50.136;11.062;2023-04-06T12:52:38;25.20;99.90
7388;DHT22;3735;50.136;11.062;2023-04-06T12:55:05;24.80;99.90
7388;DHT22;3735;50.136;11.062;2023-04-06T12:57:31;24.40;99.90
7388;DHT22;3735;50.136;11.062;2023-04-06T12:59:57;24.20;99.90
7388;DHT22;3735;50.136;11.062;2023-04-06T13:02:23;24.00;99.90
7388;DHT22;3735;50.136;11.062;2023-04-06T13:04:49;24.50;99.90
7388;DHT22;3735;50.136;11.062;2023-04-06T13:07:15;24.60;99.90
7388;DHT22;3735;50.136;11.062;2023-04-06T13:09:41;24.70;99.90
7388;DHT22;3735;50.136;11.062;2023-04-06T13:12:07;24.40;99.90
7388;DHT22;3735;50.136;11.062;2023-04-06T13:14:33;23.90;99.90
7388;DHT22;3735;50.136;11.062;2023-04-06T13:17:00;24.20;99.90
7388;DHT22;3735;50.136;11.062;2023-04-06T13:19:26;23.90;99.90
7388;DHT22;3735;50.136;11.062;2023-04-06T13:21:51;23.40;99.90
7388;DHT22;3735;50.136;11.062;2023-04-06T13:24:17;23.70;99.90
7388;DHT22;3735;50.136;11.062;2023-04-06T13:26:44;24.20;99.90
7388;DHT22;3735;50.136;11.062;2023-04-06T13:29:10;24.90;99.90
7388;DHT22;3735;50.136;11.062;2023-04-06T13:31:36;25.50;99.90
7388;DHT22;3735;50.136;11.062;2023-04-06T13:34:03;25.90;99.90
7388;DHT22;3735;50.136;11.062;2023-04-06T13:36:29;26.20;99.90
7388;DHT22;3735;50.136;11.062;2023-04-06T13:38:55;26.50;99.90
7388;DHT22;3735;50.136;11.062;2023-04-06T13:41:23;26.20;99.90
7388;DHT22;3735;50.136;11.062;2023-04-06T13:43:52;25.20;99.90
7388;DHT22;3735;50.136;11.062;2023-04-06T13:46:18;24.60;99.90
7388;DHT22;3735;50.136;11.062;2023-04-06T13:48:44;24.70;99.90
7388;DHT22;3735;50.136;11.062;2023-04-06T13:51:11;25.40;99.90
7388;DHT22;3735;50.136;11.062;2023-04-06T13:53:38;25.30;99.90
7388;DHT22;3735;50.136;11.062;2023-04-06T13:56:05;24.80;99.90
7388;DHT22;3735;50.136;11.062;2023-04-06T13:58:32;24.10;99.90
7388;DHT22;3735;50.136;11.062;2023-04-06T14:01:05;23.70;99.90
7388;DHT22;3735;50.136;11.062;2023-04-06T14:03:32;23.50;99.90
7388;DHT22;3735;50.136;11.062;2023-04-06T14:05:59;23.70;99.90
7388;DHT22;3735;50.136;11.062;2023-04-06T14:08:25;24.20;99.90
7388;DHT22;3735;50.136;11.062;2023-04-06T14:10:51;24.50;99.90
7388;DHT22;3735;50.136;11.062;2023-04-06T14:13:17;24.20;99.90
7388;DHT22;3735;50.136;11.062;2023-04-06T14:15:42;23.90;99.90
7388;DHT22;3735;50.136;11.062;2023-04-06T14:18:08;24.00;99.90
7388;DHT22;3735;50.136;11.062;2023-04-06T14:20:34;24.10;99.90
7388;DHT22;3735;50.136;11.062;2023-04-06T14:23:01;24.10;99.90
7388;DHT22;3735;50.136;11.062;2023-04-06T14:25:27;24.20;99.90
7388;DHT22;3735;50.136;11.062;2023-04-06T14:27:53;24.60;99.90
7388;DHT22;3735;50.136;11.062;2023-04-06T14:30:18;25.20;99.90
7388;DHT22;3735;50.136;11.062;2023-04-06T14:32:45;25.50;99.90
7388;DHT22;3735;50.136;11.062;2023-04-06T14:35:10;25.30;99.90
7388;DHT22;3735;50.136;11.062;2023-04-06T14:37:36;24.70;99.90
7388;DHT22;3735;50.136;11.062;2023-04-06T14:40:03;24.10;99.90
7388;DHT22;3735;50.136;11.062;2023-04-06T14:42:29;23.90;99.90
7388;DHT22;3735;50.136;11.062;2023-04-06T14:44:55;23.90;99.90
7388;DHT22;3735;50.136;11.062;2023-04-06T14:47:20;24.20;99.90
7388;DHT22;3735;50.136;11.062;2023-04-06T14:49:50;24.70;99.90
7388;DHT22;3735;50.136;11.062;2023-04-06T14:52:17;24.50;99.90
7388;DHT22;3735;50.136;11.062;2023-04-06T14:54:43;24.00;99.90
7388;DHT22;3735;50.136;11.062;2023-04-06T14:57:09;23.70;99.90
7388;DHT22;3735;50.136;11.062;2023-04-06T14:59:35;23.60;99.90
7388;DHT22;3735;50.136;11.062;2023-04-06T15:02:02;23.90;99.90
7388;DHT22;3735;50.136;11.062;2023-04-06T15:04:28;23.70;99.90
7388;DHT22;3735;50.136;11.062;2023-04-06T15:06:55;23.40;99.90
7388;DHT22;3735;50.136;11.062;2023-04-06T15:09:21;23.10;99.90
7388;DHT22;3735;50.136;11.062;2023-04-06T15:11:47;22.50;99.90
7388;DHT22;3735;50.136;11.062;2023-04-06T15:14:13;21.90;99.90
7388;DHT22;3735;50.136;11.062;2023-04-06T15:16:39;21.40;99.90
7388;DHT22;3735;50.136;11.062;2023-04-06T15:19:05;20.60;99.90
7388;DHT22;3735;50.136;11.062;2023-04-06T15:21:31;20.40;99.90
7388;DHT22;3735;50.136;11.062;2023-04-06T15:23:57;20.60;99.90
7388;DHT22;3735;50.136;11.062;2023-04-06T15:26:23;20.40;99.90
7388;DHT22;3735;50.136;11.062;2023-04-06T15:28:49;20.50;99.90
7388;DHT22;3735;50.136;11.062;2023-04-06T15:31:23;21.00;99.90
7388;DHT22;3735;50.136;11.062;2023-04-06T15:33:49;21.20;99.90
7388;DHT22;3735;50.136;11.062;2023-04-06T15:36:28;21.20;99.90
7388;DHT22;3735;50.136;11.062;2023-04-06T15:38:58;20.80;99.90
7388;DHT22;3735;50.136;11.062;2023-04-06T15:41:24;20.50;99.90
7388;DHT22;3735;50.136;11.062;2023-04-06T15:43:53;20.40;99.90
7388;DHT22;3735;50.136;11.062;2023-04-06T15:46:20;20.10;99.90
7388;DHT22;3735;50.136;11.062;2023-04-06T15:48:47;20.10;99.90
7388;DHT22;3735;50.136;11.062;2023-04-06T15:51:13;20.20;99.90
7388;DHT22;3735;50.136;11.062;2023-04-06T15:53:39;20.10;99.90
7388;DHT22;3735;50.136;11.062;2023-04-06T15:56:05;19.80;99.90
7388;DHT22;3735;50.136;11.062;2023-04-06T15:58:34;19.40;99.90